sensor_id;sensor_type;location;lat;lon;timestamp;pressure;altitude;pressure_sealevel;temperature
53412;BMP280;39307;52.870;13.660;2022-09-02T00:01:29;101745.25;;;12.45
53412;BMP280;39307;52.870;13.660;2022-09-02T00:04:01;101741.34;;;12.41
53412;BMP280;39307;52.870;13.660;2022-09-02T00:06:28;101747.28;;;12.36
53412;BMP280;39307;52.870;13.660;2022-09-02T00:08:55;101748.59;;;12.32
53412;BMP280;39307;52.870;13.660;2022-09-02T00:11:24;101735.63;;;12.30
53412;BMP280;39307;52.870;13.660;2022-09-02T00:13:50;101740.38;;;12.35
53412;BMP280;39307;52.870;13.660;2022-09-02T00:16:17;101743.63;;;12.37
53412;BMP280;39307;52.870;13.660;2022-09-02T00:18:43;101740.88;;;12.30
53412;BMP280;39307;52.870;13.660;2022-09-02T00:21:11;101739.94;;;12.23
53412;BMP280;39307;52.870;13.660;2022-09-02T00:23:37;101733.88;;;12.23
53412;BMP280;39307;52.870;13.660;2022-09-02T00:26:04;101738.78;;;12.18
53412;BMP280;39307;52.870;13.660;2022-09-02T00:28:31;101736.16;;;12.18
53412;BMP280;39307;52.870;13.660;2022-09-02T00:30:57;101745.03;;;12.17
53412;BMP280;39307;52.870;13.660;2022-09-02T00:33:23;101743.41;;;12.16
53412;BMP280;39307;52.870;13.660;2022-09-02T00:35:49;101744.38;;;12.15
53412;BMP280;39307;52.870;13.660;2022-09-02T00:38:16;101744.56;;;12.13
53412;BMP280;39307;52.870;13.660;2022-09-02T00:40:48;101745.38;;;12.14
53412;BMP280;39307;52.870;13.660;2022-09-02T00:46:08;101739.78;;;12.17
53412;BMP280;39307;52.870;13.660;2022-09-02T00:48:36;101751.56;;;12.29
53412;BMP280;39307;52.870;13.660;2022-09-02T00:51:03;101737.97;;;12.25
53412;BMP280;39307;52.870;13.660;2022-09-02T00:53:30;101735.03;;;12.12
53412;BMP280;39307;52.870;13.660;2022-09-02T00:55:57;101740.13;;;12.06
53412;BMP280;39307;52.870;13.660;2022-09-02T00:58:28;101738.19;;;12.00
53412;BMP280;39307;52.870;13.660;2022-09-02T01:00:58;101736.88;;;11.96
53412;BMP280;39307;52.870;13.660;2022-09-02T01:03:27;101732.16;;;11.92
53412;BMP280;39307;52.870;13.660;2022-09-02T01:05:56;101732.50;;;11.89
53412;BMP280;39307;52.870;13.660;2022-09-02T01:08:28;101740.69;;;11.86
53412;BMP280;39307;52.870;13.660;2022-09-02T01:10:57;101730.69;;;11.82
53412;BMP280;39307;52.870;13.660;2022-09-02T01:13:29;101729.72;;;11.82
53412;BMP280;39307;52.870;13.660;2022-09-02T01:18:32;101735.63;;;11.77
53412;BMP280;39307;52.870;13.660;2022-09-02T01:20:59;101732.16;;;11.76
53412;BMP280;39307;52.870;13.660;2022-09-02T01:23:28;101723.63;;;11.82
53412;BMP280;39307;52.870;13.660;2022-09-02T01:25:56;101729.53;;;11.76
53412;BMP280;39307;52.870;13.660;2022-09-02T01:28:23;101725.47;;;11.74
53412;BMP280;39307;52.870;13.660;2022-09-02T01:30:52;101722.00;;;11.73
53412;BMP280;39307;52.870;13.660;2022-09-02T01:33:21;101720.88;;;11.68
53412;BMP280;39307;52.870;13.660;2022-09-02T01:35:48;101724.66;;;11.65
53412;BMP280;39307;52.870;13.660;2022-09-02T01:38:15;101721.34;;;11.63
53412;BMP280;39307;52.870;13.660;2022-09-02T01:40:42;101724.66;;;11.65
53412;BMP280;39307;52.870;13.660;2022-09-02T01:43:12;101714.81;;;11.67
53412;BMP280;39307;52.870;13.660;2022-09-02T01:45:41;101721.69;;;11.68
53412;BMP280;39307;52.870;13.660;2022-09-02T01:48:08;101727.44;;;11.72
53412;BMP280;39307;52.870;13.660;2022-09-02T01:50:37;101719.06;;;11.68
53412;BMP280;39307;52.870;13.660;2022-09-02T01:53:04;101718.09;;;11.61
53412;BMP280;39307;52.870;13.660;2022-09-02T01:55:32;101714.34;;;11.56
53412;BMP280;39307;52.870;13.660;2022-09-02T01:57:59;101714.00;;;11.51
53412;BMP280;39307;52.870;13.660;2022-09-02T02:00:26;101713.84;;;11.45
53412;BMP280;39307;52.870;13.660;2022-09-02T02:02:52;101712.22;;;11.44
53412;BMP280;39307;52.870;13.660;2022-09-02T02:05:19;101712.84;;;11.38
53412;BMP280;39307;52.870;13.660;2022-09-02T02:07:45;101705.94;;;11.37
53412;BMP280;39307;52.870;13.660;2022-09-02T02:10:14;101710.69;;;11.33
53412;BMP280;39307;52.870;13.660;2022-09-02T02:12:41;101714.13;;;11.34
53412;BMP280;39307;52.870;13.660;2022-09-02T02:15:12;101710.69;;;11.33
53412;BMP280;39307;52.870;13.660;2022-09-02T02:17:39;101710.69;;;11.33
53412;BMP280;39307;52.870;13.660;2022-09-02T02:20:07;101711.19;;;11.37
53412;BMP280;39307;52.870;13.660;2022-09-02T02:22:34;101709.56;;;11.36
53412;BMP280;39307;52.870;13.660;2022-09-02T02:25:04;101716.41;;;11.37
53412;BMP280;39307;52.870;13.660;2022-09-02T02:27:30;101719.56;;;11.32
53412;BMP280;39307;52.870;13.660;2022-09-02T02:29:57;101723.16;;;11.31
53412;BMP280;39307;52.870;13.660;2022-09-02T02:32:23;101709.38;;;11.29
53412;BMP280;39307;52.870;13.660;2022-09-02T02:34:50;101715.78;;;11.27
53412;BMP280;39307;52.870;13.660;2022-09-02T02:37:16;101707.41;;;11.23
53412;BMP280;39307;52.870;13.660;2022-09-02T02:39:43;101712.19;;;11.20
53412;BMP280;39307;52.870;13.660;2022-09-02T02:42:09;101718.88;;;11.15
53412;BMP280;39307;52.870;13.660;2022-09-02T02:44:36;101704.47;;;11.11
53412;BMP280;39307;52.870;13.660;2022-09-02T02:47:02;101705.59;;;11.08
53412;BMP280;39307;52.870;13.660;2022-09-02T02:49:28;101703.97;;;11.07
53412;BMP280;39307;52.870;13.660;2022-09-02T02:51:54;101716.41;;;11.05
53412;BMP280;39307;52.870;13.660;2022-09-02T02:54:21;101709.56;;;11.04
53412;BMP280;39307;52.870;13.660;2022-09-02T02:56:47;101707.41;;;11.00
53412;BMP280;39307;52.870;13.660;2022-09-02T02:59:13;101707.25;;;11.01
53412;BMP280;39307;52.870;13.660;2022-09-02T03:01:40;101698.91;;;10.98
53412;BMP280;39307;52.870;13.660;2022-09-02T03:04:06;101703.47;;;10.96
53412;BMP280;39307;52.870;13.660;2022-09-02T03:06:32;101707.22;;;10.94
53412;BMP280;39307;52.870;13.660;2022-09-02T03:08:59;101702.31;;;10.91
53412;BMP280;39307;52.870;13.660;2022-09-02T03:11:25;101707.09;;;10.95
53412;BMP280;39307;52.870;13.660;2022-09-02T03:13:51;101707.22;;;10.94
53412;BMP280;39307;52.870;13.660;2022-09-02T03:16:18;101701.66;;;10.89
53412;BMP280;39307;52.870;13.660;2022-09-02T03:18:45;101705.25;;;10.88
53412;BMP280;39307;52.870;13.660;2022-09-02T03:21:12;101702.13;;;10.84
53412;BMP280;39307;52.870;13.660;2022-09-02T03:23:38;101698.03;;;10.82
53412;BMP280;39307;52.870;13.660;2022-09-02T03:26:10;101702.78;;;10.78
53412;BMP280;39307;52.870;13.660;2022-09-02T03:28:38;101697.72;;;10.77
53412;BMP280;39307;52.870;13.660;2022-09-02T03:31:04;101692.63;;;10.75
53412;BMP280;39307;52.870;13.660;2022-09-02T03:33:31;101696.06;;;10.76
53412;BMP280;39307;52.870;13.660;2022-09-02T03:35:58;101697.03;;;10.75
53412;BMP280;39307;52.870;13.660;2022-09-02T03:38:24;101696.91;;;10.76
53412;BMP280;39307;52.870;13.660;2022-09-02T03:40:50;101688.38;;;10.74
53412;BMP280;39307;52.870;13.660;2022-09-02T03:43:17;101686.06;;;10.71
53412;BMP280;39307;52.870;13.660;2022-09-02T03:45:43;101686.53;;;10.67
53412;BMP280;39307;52.870;13.660;2022-09-02T03:48:13;101692.44;;;10.69
53412;BMP280;39307;52.870;13.660;2022-09-02T03:50:42;101689.16;;;10.67
53412;BMP280;39307;52.870;13.660;2022-09-02T03:53:09;101694.72;;;10.64
53412;BMP280;39307;52.870;13.660;2022-09-02T03:55:36;101700.94;;;10.63
53412;BMP280;39307;52.870;13.660;2022-09-02T03:58:03;101709.47;;;10.65
53412;BMP280;39307;52.870;13.660;2022-09-02T04:00:30;101704.06;;;10.66
53412;BMP280;39307;52.870;13.660;2022-09-02T04:02:56;101699.50;;;10.68
53412;BMP280;39307;52.870;13.660;2022-09-02T04:05:23;101699.63;;;10.67
53412;BMP280;39307;52.870;13.660;2022-09-02T04:07:50;101701.63;;;10.65
53412;BMP280;39307;52.870;13.660;2022-09-02T04:10:17;101696.69;;;10.62
53412;BMP280;39307;52.870;13.660;2022-09-02T04:12:43;101694.72;;;10.64
53412;BMP280;39307;52.870;13.660;2022-09-02T04:15:11;101705.88;;;10.66
53412;BMP280;39307;52.870;13.660;2022-09-02T04:17:39;101705.72;;;10.67
53412;BMP280;39307;52.870;13.660;2022-09-02T04:20:07;101703.41;;;10.65
53412;BMP280;39307;52.870;13.660;2022-09-02T04:22:35;101689.47;;;10.64
53412;BMP280;39307;52.870;13.660;2022-09-02T04:25:01;101696.19;;;10.59
53412;BMP280;39307;52.870;13.660;2022-09-02T04:27:28;101694.84;;;10.55
53412;BMP280;39307;52.870;13.660;2022-09-02T04:29:55;101695.84;;;10.54
53412;BMP280;39307;52.870;13.660;2022-09-02T04:32:21;101692.56;;;10.52
53412;BMP280;39307;52.870;13.660;2022-09-02T04:34:47;101696.03;;;10.52
53412;BMP280;39307;52.870;13.660;2022-09-02T04:37:14;101700.94;;;10.55
53412;BMP280;39307;52.870;13.660;2022-09-02T04:39:40;101699.63;;;10.59
53412;BMP280;39307;52.870;13.660;2022-09-02T04:42:07;101694.09;;;10.62
53412;BMP280;39307;52.870;13.660;2022-09-02T04:44:33;101705.50;;;10.61
53412;BMP280;39307;52.870;13.660;2022-09-02T04:46:59;101693.59;;;10.59
53412;BMP280;39307;52.870;13.660;2022-09-02T04:49:25;101700.63;;;10.58
53412;BMP280;39307;52.870;13.660;2022-09-02T04:51:52;101697.16;;;10.58
53412;BMP280;39307;52.870;13.660;2022-09-02T04:54:18;101699.31;;;10.62
53412;BMP280;39307;52.870;13.660;2022-09-02T04:56:44;101704.69;;;10.61
53412;BMP280;39307;52.870;13.660;2022-09-02T04:59:11;101703.88;;;10.60
53412;BMP280;39307;52.870;13.660;2022-09-02T05:01:37;101704.22;;;10.65
53412;BMP280;39307;52.870;13.660;2022-09-02T05:04:05;101707.50;;;10.67
53412;BMP280;39307;52.870;13.660;2022-09-02T05:06:31;101704.56;;;10.70
53412;BMP280;39307;52.870;13.660;2022-09-02T05:08:58;101707.84;;;10.72
53412;BMP280;39307;52.870;13.660;2022-09-02T05:11:25;101707.53;;;10.75
53412;BMP280;39307;52.870;13.660;2022-09-02T05:13:52;101707.22;;;10.78
53412;BMP280;39307;52.870;13.660;2022-09-02T05:16:25;101704.94;;;10.83
53412;BMP280;39307;52.870;13.660;2022-09-02T05:18:53;101702.63;;;10.88
53412;BMP280;39307;52.870;13.660;2022-09-02T05:21:20;101711.16;;;10.90
53412;BMP280;39307;52.870;13.660;2022-09-02T05:23:47;101705.75;;;10.91
53412;BMP280;39307;52.870;13.660;2022-09-02T05:26:13;101711.66;;;10.93
53412;BMP280;39307;52.870;13.660;2022-09-02T05:28:40;101707.22;;;10.94
53412;BMP280;39307;52.870;13.660;2022-09-02T05:31:09;101711.66;;;10.93
53412;BMP280;39307;52.870;13.660;2022-09-02T05:33:36;101708.53;;;10.97
53412;BMP280;39307;52.870;13.660;2022-09-02T05:36:04;101711.19;;;11.05
53412;BMP280;39307;52.870;13.660;2022-09-02T05:38:31;101707.91;;;11.11
53412;BMP280;39307;52.870;13.660;2022-09-02T05:40:57;101707.25;;;11.17
53412;BMP280;39307;52.870;13.660;2022-09-02T05:43:24;101710.53;;;11.27
53412;BMP280;39307;52.870;13.660;2022-09-02T05:45:50;101711.00;;;11.30
53412;BMP280;39307;52.870;13.660;2022-09-02T05:48:17;101704.81;;;11.39
53412;BMP280;39307;52.870;13.660;2022-09-02T05:50:44;101698.75;;;11.54
53412;BMP280;39307;52.870;13.660;2022-09-02T05:53:10;101705.63;;;11.63
53412;BMP280;39307;52.870;13.660;2022-09-02T05:55:36;101697.03;;;11.85
53412;BMP280;39307;52.870;13.660;2022-09-02T05:58:03;101700.28;;;12.11
53412;BMP280;39307;52.870;13.660;2022-09-02T06:00:29;101707.81;;;12.13
53412;BMP280;39307;52.870;13.660;2022-09-02T06:02:55;101703.50;;;12.20
53412;BMP280;39307;52.870;13.660;2022-09-02T06:05:21;101708.69;;;12.36
53412;BMP280;39307;52.870;13.660;2022-09-02T06:07:48;101700.56;;;12.53
53412;BMP280;39307;52.870;13.660;2022-09-02T06:10:14;101700.94;;;12.72
53412;BMP280;39307;52.870;13.660;2022-09-02T06:12:40;101697.84;;;12.69
53412;BMP280;39307;52.870;13.660;2022-09-02T06:15:07;101700.34;;;12.63
53412;BMP280;39307;52.870;13.660;2022-09-02T06:17:33;101708.56;;;12.68
53412;BMP280;39307;52.870;13.660;2022-09-02T06:20:00;101706.28;;;12.65
53412;BMP280;39307;52.870;13.660;2022-09-02T06:22:26;101699.81;;;12.67
53412;BMP280;39307;52.870;13.660;2022-09-02T06:24:53;101705.94;;;12.68
53412;BMP280;39307;52.870;13.660;2022-09-02T06:27:19;101707.84;;;12.73
53412;BMP280;39307;52.870;13.660;2022-09-02T06:29:45;101704.88;;;12.76
53412;BMP280;39307;52.870;13.660;2022-09-02T06:32:11;101709.19;;;12.99
53412;BMP280;39307;52.870;13.660;2022-09-02T06:34:38;101711.94;;;13.06
53412;BMP280;39307;52.870;13.660;2022-09-02T06:37:04;101710.75;;;13.08
53412;BMP280;39307;52.870;13.660;2022-09-02T06:39:31;101708.38;;;12.99
53412;BMP280;39307;52.870;13.660;2022-09-02T06:41:57;101707.25;;;12.94
53412;BMP280;39307;52.870;13.660;2022-09-02T06:44:23;101710.06;;;12.92
53412;BMP280;39307;52.870;13.660;2022-09-02T06:46:55;101706.25;;;12.95
53412;BMP280;39307;52.870;13.660;2022-09-02T06:49:23;101721.50;;;12.99
53412;BMP280;39307;52.870;13.660;2022-09-02T06:51:51;101713.41;;;13.08
53412;BMP280;39307;52.870;13.660;2022-09-02T06:54:19;101707.38;;;13.22
53412;BMP280;39307;52.870;13.660;2022-09-02T06:56:47;101709.81;;;13.24
53412;BMP280;39307;52.870;13.660;2022-09-02T06:59:14;101708.56;;;13.20
53412;BMP280;39307;52.870;13.660;2022-09-02T07:01:42;101718.06;;;13.21
53412;BMP280;39307;52.870;13.660;2022-09-02T07:04:08;101693.03;;;13.25
53412;BMP280;39307;52.870;13.660;2022-09-02T07:06:40;101698.81;;;13.42
53412;BMP280;39307;52.870;13.660;2022-09-02T07:09:08;101693.31;;;13.52
53412;BMP280;39307;52.870;13.660;2022-09-02T07:11:36;101695.31;;;13.64
53412;BMP280;39307;52.870;13.660;2022-09-02T07:14:03;101692.97;;;13.69
53412;BMP280;39307;52.870;13.660;2022-09-02T07:16:33;101696.97;;;13.79
53412;BMP280;39307;52.870;13.660;2022-09-02T07:19:00;101692.44;;;13.87
53412;BMP280;39307;52.870;13.660;2022-09-02T07:21:27;101689.50;;;14.05
53412;BMP280;39307;52.870;13.660;2022-09-02T07:23:54;101688.72;;;14.39
53412;BMP280;39307;52.870;13.660;2022-09-02T07:26:21;101689.25;;;14.49
53412;BMP280;39307;52.870;13.660;2022-09-02T07:28:47;101688.06;;;14.51
53412;BMP280;39307;52.870;13.660;2022-09-02T07:31:15;101683.94;;;14.63
53412;BMP280;39307;52.870;13.660;2022-09-02T07:33:42;101681.81;;;14.73
53412;BMP280;39307;52.870;13.660;2022-09-02T07:36:08;101683.44;;;15.09
53412;BMP280;39307;52.870;13.660;2022-09-02T07:38:35;101680.19;;;15.55
53412;BMP280;39307;52.870;13.660;2022-09-02T07:41:02;101674.97;;;15.94
53412;BMP280;39307;52.870;13.660;2022-09-02T07:43:29;101675.22;;;16.33
53412;BMP280;39307;52.870;13.660;2022-09-02T07:45:56;101672.97;;;16.95
53412;BMP280;39307;52.870;13.660;2022-09-02T07:48:23;101658.78;;;17.54
53412;BMP280;39307;52.870;13.660;2022-09-02T07:50:50;101659.28;;;18.13
53412;BMP280;39307;52.870;13.660;2022-09-02T07:53:17;101651.63;;;18.42
53412;BMP280;39307;52.870;13.660;2022-09-02T07:55:44;101668.94;;;18.45
53412;BMP280;39307;52.870;13.660;2022-09-02T07:58:12;101663.16;;;18.60
53412;BMP280;39307;52.870;13.660;2022-09-02T08:00:38;101656.78;;;19.05
53412;BMP280;39307;52.870;13.660;2022-09-02T08:03:05;101656.41;;;19.49
53412;BMP280;39307;52.870;13.660;2022-09-02T08:05:33;101654.94;;;20.13
53412;BMP280;39307;52.870;13.660;2022-09-02T08:08:00;101655.00;;;20.42
53412;BMP280;39307;52.870;13.660;2022-09-02T08:10:28;101651.88;;;20.80
53412;BMP280;39307;52.870;13.660;2022-09-02T08:12:55;101641.41;;;21.30
53412;BMP280;39307;52.870;13.660;2022-09-02T08:15:22;101642.38;;;21.81
53412;BMP280;39307;52.870;13.660;2022-09-02T08:17:49;101632.84;;;22.19
53412;BMP280;39307;52.870;13.660;2022-09-02T08:20:16;101642.06;;;22.66
53412;BMP280;39307;52.870;13.660;2022-09-02T08:22:43;101630.72;;;22.87
53412;BMP280;39307;52.870;13.660;2022-09-02T08:25:10;101632.84;;;23.17
53412;BMP280;39307;52.870;13.660;2022-09-02T08:27:37;101632.28;;;23.16
53412;BMP280;39307;52.870;13.660;2022-09-02T08:30:04;101633.91;;;23.49
53412;BMP280;39307;52.870;13.660;2022-09-02T08:32:31;101642.81;;;23.54
53412;BMP280;39307;52.870;13.660;2022-09-02T08:35:02;101632.31;;;23.85
53412;BMP280;39307;52.870;13.660;2022-09-02T08:37:29;101636.09;;;24.27
53412;BMP280;39307;52.870;13.660;2022-09-02T08:39:56;101629.78;;;24.37
53412;BMP280;39307;52.870;13.660;2022-09-02T08:42:32;101637.19;;;24.09
53412;BMP280;39307;52.870;13.660;2022-09-02T08:45:13;101636.00;;;24.01
53412;BMP280;39307;52.870;13.660;2022-09-02T08:47:44;101637.41;;;23.66
53412;BMP280;39307;52.870;13.660;2022-09-02T08:50:16;101634.22;;;23.52
53412;BMP280;39307;52.870;13.660;2022-09-02T08:53:07;101629.50;;;23.43
53412;BMP280;39307;52.870;13.660;2022-09-02T08:55:46;101632.13;;;23.54
53412;BMP280;39307;52.870;13.660;2022-09-02T08:58:22;101632.63;;;23.51
53412;BMP280;39307;52.870;13.660;2022-09-02T09:01:05;101629.00;;;23.78
53412;BMP280;39307;52.870;13.660;2022-09-02T09:08:51;101616.66;;;23.94
53412;BMP280;39307;52.870;13.660;2022-09-02T09:11:44;101610.69;;;24.50
53412;BMP280;39307;52.870;13.660;2022-09-02T09:14:35;101603.06;;;25.25
53412;BMP280;39307;52.870;13.660;2022-09-02T09:20:17;101600.16;;;25.68
53412;BMP280;39307;52.870;13.660;2022-09-02T09:22:45;101605.91;;;25.81
53412;BMP280;39307;52.870;13.660;2022-09-02T09:25:15;101595.84;;;25.62
53412;BMP280;39307;52.870;13.660;2022-09-02T09:27:41;101598.28;;;25.63
53412;BMP280;39307;52.870;13.660;2022-09-02T09:30:09;101594.31;;;25.76
53412;BMP280;39307;52.870;13.660;2022-09-02T09:32:44;101595.00;;;26.02
53412;BMP280;39307;52.870;13.660;2022-09-02T09:35:12;101590.66;;;25.91
53412;BMP280;39307;52.870;13.660;2022-09-02T09:37:39;101597.44;;;25.58
53412;BMP280;39307;52.870;13.660;2022-09-02T09:40:22;101586.81;;;25.32
53412;BMP280;39307;52.870;13.660;2022-09-02T09:42:58;101591.25;;;25.17
53412;BMP280;39307;52.870;13.660;2022-09-02T09:45:44;101590.16;;;25.18
53412;BMP280;39307;52.870;13.660;2022-09-02T09:48:18;101587.09;;;25.04
53412;BMP280;39307;52.870;13.660;2022-09-02T09:51:12;101585.78;;;25.07
53412;BMP280;39307;52.870;13.660;2022-09-02T09:53:38;101581.56;;;25.16
53412;BMP280;39307;52.870;13.660;2022-09-02T10:01:33;101575.22;;;25.67
53412;BMP280;39307;52.870;13.660;2022-09-02T10:04:24;101570.91;;;25.61
53412;BMP280;39307;52.870;13.660;2022-09-02T10:06:51;101561.81;;;26.18
53412;BMP280;39307;52.870;13.660;2022-09-02T10:12:05;101546.63;;;27.02
53412;BMP280;39307;52.870;13.660;2022-09-02T10:14:50;101545.00;;;27.11
53412;BMP280;39307;52.870;13.660;2022-09-02T10:20:27;101545.22;;;27.44
53412;BMP280;39307;52.870;13.660;2022-09-02T10:39:20;101529.78;;;27.79
53412;BMP280;39307;52.870;13.660;2022-09-02T10:41:49;101538.44;;;27.66
53412;BMP280;39307;52.870;13.660;2022-09-02T10:44:55;101528.72;;;28.27
53412;BMP280;39307;52.870;13.660;2022-09-02T10:47:36;101527.31;;;28.40
53412;BMP280;39307;52.870;13.660;2022-09-02T10:50:35;101534.59;;;27.91
53412;BMP280;39307;52.870;13.660;2022-09-02T10:58:41;101523.03;;;27.81
53412;BMP280;39307;52.870;13.660;2022-09-02T11:01:19;101522.38;;;27.26
53412;BMP280;39307;52.870;13.660;2022-09-02T11:06:40;101525.66;;;27.14
53412;BMP280;39307;52.870;13.660;2022-09-02T11:09:25;101518.38;;;27.04
53412;BMP280;39307;52.870;13.660;2022-09-02T11:11:57;101520.81;;;27.01
53412;BMP280;39307;52.870;13.660;2022-09-02T11:23:52;101507.84;;;26.14
53412;BMP280;39307;52.870;13.660;2022-09-02T11:29:37;101517.88;;;25.68
53412;BMP280;39307;52.870;13.660;2022-09-02T11:34:50;101509.47;;;25.50
53412;BMP280;39307;52.870;13.660;2022-09-02T11:37:33;101505.28;;;24.92
53412;BMP280;39307;52.870;13.660;2022-09-02T11:40:08;101501.31;;;24.94
53412;BMP280;39307;52.870;13.660;2022-09-02T11:42:46;101498.91;;;25.39
53412;BMP280;39307;52.870;13.660;2022-09-02T11:45:28;101505.47;;;25.57
53412;BMP280;39307;52.870;13.660;2022-09-02T11:48:15;101481.03;;;26.29
53412;BMP280;39307;52.870;13.660;2022-09-02T11:51:31;101483.75;;;26.78
53412;BMP280;39307;52.870;13.660;2022-09-02T11:54:06;101483.41;;;27.19
53412;BMP280;39307;52.870;13.660;2022-09-02T11:56:42;101483.84;;;27.55
53412;BMP280;39307;52.870;13.660;2022-09-02T11:59:22;101478.63;;;27.84
53412;BMP280;39307;52.870;13.660;2022-09-02T12:02:07;101476.38;;;28.43
53412;BMP280;39307;52.870;13.660;2022-09-02T12:04:34;101461.78;;;29.10
53412;BMP280;39307;52.870;13.660;2022-09-02T12:12:08;101450.34;;;29.41
53412;BMP280;39307;52.870;13.660;2022-09-02T12:17:08;101445.06;;;29.54
53412;BMP280;39307;52.870;13.660;2022-09-02T12:19:43;101450.25;;;29.28
53412;BMP280;39307;52.870;13.660;2022-09-02T12:24:59;101436.28;;;29.67
53412;BMP280;39307;52.870;13.660;2022-09-02T12:27:27;101435.19;;;30.04
53412;BMP280;39307;52.870;13.660;2022-09-02T12:29:55;101445.53;;;29.38
53412;BMP280;39307;52.870;13.660;2022-09-02T12:35:12;101450.00;;;27.50
53412;BMP280;39307;52.870;13.660;2022-09-02T12:40:50;101451.75;;;26.62
53412;BMP280;39307;52.870;13.660;2022-09-02T12:43:26;101438.63;;;26.26
53412;BMP280;39307;52.870;13.660;2022-09-02T12:46:06;101441.81;;;26.18
53412;BMP280;39307;52.870;13.660;2022-09-02T12:51:52;101425.44;;;26.94
53412;BMP280;39307;52.870;13.660;2022-09-02T12:54:48;101424.34;;;26.70
53412;BMP280;39307;52.870;13.660;2022-09-02T12:57:17;101427.84;;;26.80
53412;BMP280;39307;52.870;13.660;2022-09-02T12:59:45;101424.41;;;26.50
53412;BMP280;39307;52.870;13.660;2022-09-02T13:02:24;101427.34;;;26.39
53412;BMP280;39307;52.870;13.660;2022-09-02T13:10:54;101425.34;;;25.15
53412;BMP280;39307;52.870;13.660;2022-09-02T13:13:51;101425.34;;;25.15
53412;BMP280;39307;52.870;13.660;2022-09-02T13:25:19;101415.09;;;24.31
53412;BMP280;39307;52.870;13.660;2022-09-02T13:28:16;101420.25;;;24.11
53412;BMP280;39307;52.870;13.660;2022-09-02T13:33:25;101430.03;;;23.75
53412;BMP280;39307;52.870;13.660;2022-09-02T13:35:56;101429.09;;;23.64
53412;BMP280;39307;52.870;13.660;2022-09-02T13:38:25;101430.00;;;23.48
53412;BMP280;39307;52.870;13.660;2022-09-02T13:40:51;101428.75;;;23.35
53412;BMP280;39307;52.870;13.660;2022-09-02T13:43:20;101432.75;;;23.37
53412;BMP280;39307;52.870;13.660;2022-09-02T13:45:51;101430.09;;;23.37
53412;BMP280;39307;52.870;13.660;2022-09-02T13:48:41;101420.47;;;23.36
53412;BMP280;39307;52.870;13.660;2022-09-02T13:51:12;101423.06;;;23.31
53412;BMP280;39307;52.870;13.660;2022-09-02T13:53:42;101417.66;;;23.26
53412;BMP280;39307;52.870;13.660;2022-09-02T13:56:12;101414.72;;;23.07
53412;BMP280;39307;52.870;13.660;2022-09-02T13:58:51;101410.59;;;22.78
53412;BMP280;39307;52.870;13.660;2022-09-02T14:01:26;101402.94;;;22.70
53412;BMP280;39307;52.870;13.660;2022-09-02T14:03:56;101395.81;;;22.92
53412;BMP280;39307;52.870;13.660;2022-09-02T14:06:34;101402.34;;;23.01
53412;BMP280;39307;52.870;13.660;2022-09-02T14:09:06;101400.75;;;23.00
53412;BMP280;39307;52.870;13.660;2022-09-02T14:11:43;101393.03;;;23.03
53412;BMP280;39307;52.870;13.660;2022-09-02T14:14:14;101394.69;;;22.88
53412;BMP280;39307;52.870;13.660;2022-09-02T14:16:41;101390.16;;;22.88
53412;BMP280;39307;52.870;13.660;2022-09-02T14:19:21;101396.81;;;22.86
53412;BMP280;39307;52.870;13.660;2022-09-02T14:21:50;101387.13;;;23.01
53412;BMP280;39307;52.870;13.660;2022-09-02T14:24:38;101382.63;;;23.02
53412;BMP280;39307;52.870;13.660;2022-09-02T14:27:16;101381.13;;;23.32
53412;BMP280;39307;52.870;13.660;2022-09-02T14:29:48;101381.31;;;23.25
53412;BMP280;39307;52.870;13.660;2022-09-02T14:32:23;101382.81;;;23.17
53412;BMP280;39307;52.870;13.660;2022-09-02T14:37:51;101386.56;;;22.78
53412;BMP280;39307;52.870;13.660;2022-09-02T14:42:57;101389.06;;;22.68
53412;BMP280;39307;52.870;13.660;2022-09-02T14:45:26;101389.78;;;22.64
53412;BMP280;39307;52.870;13.660;2022-09-02T14:47:54;101386.16;;;22.54
53412;BMP280;39307;52.870;13.660;2022-09-02T14:50:24;101389.38;;;22.56
53412;BMP280;39307;52.870;13.660;2022-09-02T14:52:58;101381.72;;;22.43
53412;BMP280;39307;52.870;13.660;2022-09-02T14:55:45;101385.69;;;22.57
53412;BMP280;39307;52.870;13.660;2022-09-02T14:58:12;101374.19;;;22.40
53412;BMP280;39307;52.870;13.660;2022-09-02T15:00:38;101379.22;;;22.36
53412;BMP280;39307;52.870;13.660;2022-09-02T15:03:05;101378.97;;;22.38
53412;BMP280;39307;52.870;13.660;2022-09-02T15:05:32;101383.91;;;22.29
53412;BMP280;39307;52.870;13.660;2022-09-02T15:07:58;101374.84;;;22.14
53412;BMP280;39307;52.870;13.660;2022-09-02T15:10:24;101386.50;;;22.08
53412;BMP280;39307;52.870;13.660;2022-09-02T15:12:54;101385.72;;;21.97
53412;BMP280;39307;52.870;13.660;2022-09-02T15:15:21;101391.06;;;21.69
53412;BMP280;39307;52.870;13.660;2022-09-02T15:17:47;101376.19;;;21.57
53412;BMP280;39307;52.870;13.660;2022-09-02T15:20:14;101387.44;;;21.47
53412;BMP280;39307;52.870;13.660;2022-09-02T15:22:40;101382.47;;;21.51
53412;BMP280;39307;52.870;13.660;2022-09-02T15:25:07;101375.75;;;21.48
53412;BMP280;39307;52.870;13.660;2022-09-02T15:27:34;101379.03;;;21.39
53412;BMP280;39307;52.870;13.660;2022-09-02T15:30:00;101376.03;;;21.36
53412;BMP280;39307;52.870;13.660;2022-09-02T15:32:27;101364.28;;;21.48
53412;BMP280;39307;52.870;13.660;2022-09-02T15:34:53;101359.28;;;21.51
53412;BMP280;39307;52.870;13.660;2022-09-02T15:37:19;101361.84;;;21.46
53412;BMP280;39307;52.870;13.660;2022-09-02T15:39:46;101372.78;;;21.34
53412;BMP280;39307;52.870;13.660;2022-09-02T15:42:15;101361.63;;;21.48
53412;BMP280;39307;52.870;13.660;2022-09-02T15:44:42;101358.19;;;21.36
53412;BMP280;39307;52.870;13.660;2022-09-02T15:47:08;101358.34;;;21.57